sensor_id;sensor_type;location;lat;lon;timestamp;P1;durP1;ratioP1;P2;durP2;ratioP2
26756;SDS011;23848;49.798;10.228;2023-04-25T00:01:37;4.82;;;2.90;;
26756;SDS011;23848;49.798;10.228;2023-04-25T00:04:05;4.93;;;3.63;;
26756;SDS011;23848;49.798;10.228;2023-04-25T00:06:34;4.93;;;3.13;;
26756;SDS011;23848;49.798;10.228;2023-04-25T00:09:03;4.50;;;2.95;;
26756;SDS011;23848;49.798;10.228;2023-04-25T00:11:33;4.78;;;2.70;;
26756;SDS011;23848;49.798;10.228;2023-04-25T00:14:04;4.43;;;2.90;;
26756;SDS011;23848;49.798;10.228;2023-04-25T00:16:33;6.03;;;3.50;;
26756;SDS011;23848;49.798;10.228;2023-04-25T00:19:02;4.82;;;3.42;;
26756;SDS011;23848;49.798;10.228;2023-04-25T00:21:31;5.25;;;3.20;;
26756;SDS011;23848;49.798;10.228;2023-04-25T00:23:59;3.50;;;2.65;;
26756;SDS011;23848;49.798;10.228;2023-04-25T00:26:28;6.25;;;2.80;;
26756;SDS011;23848;49.798;10.228;2023-04-25T00:28:57;5.90;;;2.80;;
26756;SDS011;23848;49.798;10.228;2023-04-25T00:31:27;4.40;;;2.85;;
26756;SDS011;23848;49.798;10.228;2023-04-25T00:33:56;4.45;;;3.13;;
26756;SDS011;23848;49.798;10.228;2023-04-25T00:36:24;4.82;;;3.88;;
26756;SDS011;23848;49.798;10.228;2023-04-25T00:38:53;6.45;;;3.75;;
26756;SDS011;23848;49.798;10.228;2023-04-25T00:41:22;4.85;;;3.30;;
26756;SDS011;23848;49.798;10.228;2023-04-25T00:43:51;5.53;;;3.08;;
26756;SDS011;23848;49.798;10.228;2023-04-25T00:46:23;5.05;;;3.60;;
26756;SDS011;23848;49.798;10.228;2023-04-25T00:48:53;4.78;;;3.08;;
26756;SDS011;23848;49.798;10.228;2023-04-25T00:51:21;6.72;;;4.05;;
26756;SDS011;23848;49.798;10.228;2023-04-25T00:53:50;5.65;;;3.70;;
26756;SDS011;23848;49.798;10.228;2023-04-25T00:56:19;8.48;;;4.45;;
26756;SDS011;23848;49.798;10.228;2023-04-25T00:58:48;4.72;;;3.30;;
26756;SDS011;23848;49.798;10.228;2023-04-25T01:01:20;4.88;;;3.78;;
26756;SDS011;23848;49.798;10.228;2023-04-25T01:03:49;5.68;;;4.20;;
26756;SDS011;23848;49.798;10.228;2023-04-25T01:06:19;5.63;;;4.03;;
26756;SDS011;23848;49.798;10.228;2023-04-25T01:08:48;6.45;;;4.07;;
26756;SDS011;23848;49.798;10.228;2023-04-25T01:11:17;5.93;;;4.13;;
26756;SDS011;23848;49.798;10.228;2023-04-25T01:13:46;6.03;;;4.18;;
26756;SDS011;23848;49.798;10.228;2023-04-25T01:16:15;5.50;;;3.72;;
26756;SDS011;23848;49.798;10.228;2023-04-25T01:18:44;6.53;;;4.20;;
26756;SDS011;23848;49.798;10.228;2023-04-25T01:21:14;6.15;;;4.05;;
26756;SDS011;23848;49.798;10.228;2023-04-25T01:23:43;5.35;;;3.47;;
26756;SDS011;23848;49.798;10.228;2023-04-25T01:26:11;5.13;;;3.63;;
26756;SDS011;23848;49.798;10.228;2023-04-25T01:28:40;6.43;;;4.03;;
26756;SDS011;23848;49.798;10.228;2023-04-25T01:31:08;5.10;;;3.63;;
26756;SDS011;23848;49.798;10.228;2023-04-25T01:33:38;5.60;;;3.67;;
26756;SDS011;23848;49.798;10.228;2023-04-25T01:36:07;5.32;;;3.33;;
26756;SDS011;23848;49.798;10.228;2023-04-25T01:38:36;7.07;;;4.13;;
26756;SDS011;23848;49.798;10.228;2023-04-25T01:41:06;4.65;;;3.58;;
26756;SDS011;23848;49.798;10.228;2023-04-25T01:43:35;6.50;;;3.88;;
26756;SDS011;23848;49.798;10.228;2023-04-25T01:46:07;5.22;;;3.80;;
26756;SDS011;23848;49.798;10.228;2023-04-25T01:48:36;6.45;;;4.22;;
26756;SDS011;23848;49.798;10.228;2023-04-25T01:51:08;5.72;;;4.00;;
26756;SDS011;23848;49.798;10.228;2023-04-25T01:53:43;6.55;;;4.13;;
26756;SDS011;23848;49.798;10.228;2023-04-25T01:56:12;5.13;;;3.67;;
26756;SDS011;23848;49.798;10.228;2023-04-25T01:58:41;5.68;;;3.97;;
26756;SDS011;23848;49.798;10.228;2023-04-25T02:01:10;6.25;;;4.28;;
26756;SDS011;23848;49.798;10.228;2023-04-25T02:03:41;6.28;;;3.83;;
26756;SDS011;23848;49.798;10.228;2023-04-25T02:06:10;6.13;;;3.50;;
26756;SDS011;23848;49.798;10.228;2023-04-25T02:08:39;6.63;;;4.03;;
26756;SDS011;23848;49.798;10.228;2023-04-25T02:11:08;6.78;;;4.38;;
26756;SDS011;23848;49.798;10.228;2023-04-25T02:13:39;5.20;;;3.72;;
26756;SDS011;23848;49.798;10.228;2023-04-25T02:16:11;6.47;;;4.38;;
26756;SDS011;23848;49.798;10.228;2023-04-25T02:18:40;5.32;;;3.88;;
26756;SDS011;23848;49.798;10.228;2023-04-25T02:21:08;5.60;;;3.70;;
26756;SDS011;23848;49.798;10.228;2023-04-25T02:23:37;5.78;;;3.97;;
26756;SDS011;23848;49.798;10.228;2023-04-25T02:26:06;5.28;;;3.50;;
26756;SDS011;23848;49.798;10.228;2023-04-25T02:28:36;5.78;;;4.00;;
26756;SDS011;23848;49.798;10.228;2023-04-25T02:31:18;5.90;;;3.88;;
26756;SDS011;23848;49.798;10.228;2023-04-25T02:33:47;6.10;;;3.83;;
26756;SDS011;23848;49.798;10.228;2023-04-25T02:36:16;6.28;;;3.60;;
26756;SDS011;23848;49.798;10.228;2023-04-25T02:38:45;6.00;;;3.83;;
26756;SDS011;23848;49.798;10.228;2023-04-25T02:41:32;4.82;;;3.45;;
26756;SDS011;23848;49.798;10.228;2023-04-25T02:44:09;4.80;;;3.38;;
26756;SDS011;23848;49.798;10.228;2023-04-25T02:46:37;5.35;;;3.10;;
26756;SDS011;23848;49.798;10.228;2023-04-25T02:49:09;4.18;;;2.65;;
26756;SDS011;23848;49.798;10.228;2023-04-25T02:51:43;3.83;;;2.58;;
26756;SDS011;23848;49.798;10.228;2023-04-25T02:54:14;3.50;;;2.22;;
26756;SDS011;23848;49.798;10.228;2023-04-25T02:56:45;3.30;;;2.30;;
26756;SDS011;23848;49.798;10.228;2023-04-25T02:59:30;4.22;;;2.95;;
26756;SDS011;23848;49.798;10.228;2023-04-25T03:10:19;4.13;;;2.42;;
26756;SDS011;23848;49.798;10.228;2023-04-25T03:13:27;4.57;;;2.30;;
26756;SDS011;23848;49.798;10.228;2023-04-25T03:16:43;3.67;;;2.20;;
26756;SDS011;23848;49.798;10.228;2023-04-25T03:19:54;3.30;;;2.28;;
26756;SDS011;23848;49.798;10.228;2023-04-25T03:23:01;3.67;;;2.30;;
26756;SDS011;23848;49.798;10.228;2023-04-25T03:29:27;3.28;;;2.03;;
26756;SDS011;23848;49.798;10.228;2023-04-25T03:35:40;4.57;;;2.33;;
26756;SDS011;23848;49.798;10.228;2023-04-25T03:38:28;3.20;;;1.98;;
26756;SDS011;23848;49.798;10.228;2023-04-25T03:41:28;3.00;;;2.10;;
26756;SDS011;23848;49.798;10.228;2023-04-25T03:44:13;3.85;;;2.15;;
26756;SDS011;23848;49.798;10.228;2023-04-25T03:50:10;3.50;;;2.13;;
26756;SDS011;23848;49.798;10.228;2023-04-25T03:53:23;3.95;;;2.30;;
26756;SDS011;23848;49.798;10.228;2023-04-25T03:56:21;3.72;;;2.20;;
26756;SDS011;23848;49.798;10.228;2023-04-25T03:59:00;3.35;;;2.10;;
26756;SDS011;23848;49.798;10.228;2023-04-25T04:02:14;4.13;;;2.42;;
26756;SDS011;23848;49.798;10.228;2023-04-25T04:05:39;4.30;;;2.17;;
26756;SDS011;23848;49.798;10.228;2023-04-25T04:15:13;3.45;;;2.20;;
26756;SDS011;23848;49.798;10.228;2023-04-25T04:21:57;3.47;;;2.58;;
26756;SDS011;23848;49.798;10.228;2023-04-25T04:25:26;4.15;;;2.50;;
26756;SDS011;23848;49.798;10.228;2023-04-25T04:35:56;4.60;;;2.97;;
26756;SDS011;23848;49.798;10.228;2023-04-25T04:39:03;4.75;;;3.17;;
26756;SDS011;23848;49.798;10.228;2023-04-25T04:43:03;5.82;;;3.13;;
26756;SDS011;23848;49.798;10.228;2023-04-25T04:46:20;5.50;;;3.70;;
26756;SDS011;23848;49.798;10.228;2023-04-25T04:49:24;6.38;;;3.95;;
26756;SDS011;23848;49.798;10.228;2023-04-25T04:52:47;6.13;;;4.05;;
26756;SDS011;23848;49.798;10.228;2023-04-25T04:55:44;7.20;;;4.60;;
26756;SDS011;23848;49.798;10.228;2023-04-25T04:58:37;7.35;;;4.50;;
26756;SDS011;23848;49.798;10.228;2023-04-25T05:01:40;7.38;;;4.43;;
26756;SDS011;23848;49.798;10.228;2023-04-25T05:04:22;7.57;;;4.93;;
26756;SDS011;23848;49.798;10.228;2023-04-25T05:07:23;6.68;;;4.70;;
26756;SDS011;23848;49.798;10.228;2023-04-25T05:10:32;7.78;;;5.45;;
26756;SDS011;23848;49.798;10.228;2023-04-25T05:13:14;9.27;;;5.40;;
26756;SDS011;23848;49.798;10.228;2023-04-25T05:16:17;7.05;;;5.07;;
26756;SDS011;23848;49.798;10.228;2023-04-25T05:19:31;7.78;;;5.15;;
26756;SDS011;23848;49.798;10.228;2023-04-25T05:22:40;7.85;;;5.03;;
26756;SDS011;23848;49.798;10.228;2023-04-25T05:25:11;8.00;;;5.07;;
26756;SDS011;23848;49.798;10.228;2023-04-25T05:31:11;7.88;;;5.75;;
26756;SDS011;23848;49.798;10.228;2023-04-25T05:34:54;7.07;;;5.32;;
26756;SDS011;23848;49.798;10.228;2023-04-25T06:01:52;6.50;;;4.60;;
26756;SDS011;23848;49.798;10.228;2023-04-25T06:05:13;7.65;;;4.80;;
26756;SDS011;23848;49.798;10.228;2023-04-25T06:08:28;5.43;;;4.15;;
26756;SDS011;23848;49.798;10.228;2023-04-25T06:11:30;6.53;;;4.82;;
26756;SDS011;23848;49.798;10.228;2023-04-25T06:14:55;7.82;;;5.43;;
26756;SDS011;23848;49.798;10.228;2023-04-25T06:18:11;7.15;;;5.05;;
26756;SDS011;23848;49.798;10.228;2023-04-25T06:22:00;6.95;;;5.07;;
26756;SDS011;23848;49.798;10.228;2023-04-25T06:24:38;8.15;;;5.78;;
26756;SDS011;23848;49.798;10.228;2023-04-25T06:27:20;9.27;;;5.55;;
26756;SDS011;23848;49.798;10.228;2023-04-25T06:30:41;11.35;;;5.97;;
26756;SDS011;23848;49.798;10.228;2023-04-25T06:47:01;8.63;;;6.07;;
26756;SDS011;23848;49.798;10.228;2023-04-25T07:01:07;8.82;;;6.22;;
26756;SDS011;23848;49.798;10.228;2023-04-25T07:04:04;10.05;;;6.28;;
26756;SDS011;23848;49.798;10.228;2023-04-25T07:06:55;10.05;;;5.63;;
26756;SDS011;23848;49.798;10.228;2023-04-25T07:09:43;8.07;;;6.25;;
26756;SDS011;23848;49.798;10.228;2023-04-25T07:13:12;8.20;;;6.20;;
26756;SDS011;23848;49.798;10.228;2023-04-25T07:16:39;9.20;;;6.75;;
26756;SDS011;23848;49.798;10.228;2023-04-25T07:19:27;9.65;;;7.18;;
26756;SDS011;23848;49.798;10.228;2023-04-25T07:22:21;12.02;;;7.25;;
26756;SDS011;23848;49.798;10.228;2023-04-25T07:28:55;13.40;;;7.03;;
26756;SDS011;23848;49.798;10.228;2023-04-25T07:32:07;9.65;;;6.95;;
26756;SDS011;23848;49.798;10.228;2023-04-25T07:35:01;11.10;;;6.68;;
26756;SDS011;23848;49.798;10.228;2023-04-25T07:44:14;8.57;;;5.95;;
26756;SDS011;23848;49.798;10.228;2023-04-25T07:49:40;9.43;;;5.63;;
26756;SDS011;23848;49.798;10.228;2023-04-25T07:52:23;8.70;;;5.25;;
26756;SDS011;23848;49.798;10.228;2023-04-25T07:55:22;9.60;;;5.60;;
26756;SDS011;23848;49.798;10.228;2023-04-25T07:58:37;11.27;;;5.13;;
26756;SDS011;23848;49.798;10.228;2023-04-25T08:01:25;9.55;;;5.03;;
26756;SDS011;23848;49.798;10.228;2023-04-25T08:04:22;7.95;;;4.28;;
26756;SDS011;23848;49.798;10.228;2023-04-25T08:07:17;6.25;;;4.00;;
26756;SDS011;23848;49.798;10.228;2023-04-25T08:09:55;7.05;;;4.53;;
26756;SDS011;23848;49.798;10.228;2023-04-25T08:12:46;7.47;;;4.82;;
26756;SDS011;23848;49.798;10.228;2023-04-25T08:15:28;7.60;;;4.55;;
26756;SDS011;23848;49.798;10.228;2023-04-25T08:18:07;6.57;;;3.83;;
26756;SDS011;23848;49.798;10.228;2023-04-25T08:20:38;5.47;;;3.28;;
26756;SDS011;23848;49.798;10.228;2023-04-25T08:23:28;6.18;;;3.80;;
26756;SDS011;23848;49.798;10.228;2023-04-25T08:28:55;8.60;;;4.13;;
26756;SDS011;23848;49.798;10.228;2023-04-25T08:31:31;6.68;;;4.20;;
26756;SDS011;23848;49.798;10.228;2023-04-25T08:34:33;5.03;;;3.30;;
26756;SDS011;23848;49.798;10.228;2023-04-25T08:37:06;5.72;;;2.72;;
26756;SDS011;23848;49.798;10.228;2023-04-25T08:39:41;4.68;;;2.22;;
26756;SDS011;23848;49.798;10.228;2023-04-25T08:42:38;4.22;;;2.42;;
26756;SDS011;23848;49.798;10.228;2023-04-25T08:46:00;4.82;;;2.75;;
26756;SDS011;23848;49.798;10.228;2023-04-25T08:53:06;3.97;;;2.25;;
26756;SDS011;23848;49.798;10.228;2023-04-25T08:56:14;3.97;;;2.30;;
26756;SDS011;23848;49.798;10.228;2023-04-25T08:59:57;3.35;;;2.22;;
26756;SDS011;23848;49.798;10.228;2023-04-25T09:06:59;7.13;;;3.70;;
26756;SDS011;23848;49.798;10.228;2023-04-25T09:10:33;6.82;;;2.70;;
26756;SDS011;23848;49.798;10.228;2023-04-25T09:13:39;3.78;;;2.20;;
26756;SDS011;23848;49.798;10.228;2023-04-25T09:17:03;3.90;;;1.70;;
26756;SDS011;23848;49.798;10.228;2023-04-25T09:20:20;4.72;;;1.92;;
26756;SDS011;23848;49.798;10.228;2023-04-25T09:23:48;3.33;;;1.70;;
26756;SDS011;23848;49.798;10.228;2023-04-25T09:32:37;2.60;;;1.30;;
26756;SDS011;23848;49.798;10.228;2023-04-25T09:35:40;3.97;;;1.58;;
26756;SDS011;23848;49.798;10.228;2023-04-25T09:38:45;4.07;;;2.45;;
26756;SDS011;23848;49.798;10.228;2023-04-25T09:44:51;2.83;;;1.80;;
26756;SDS011;23848;49.798;10.228;2023-04-25T09:47:43;3.73;;;2.07;;
26756;SDS011;23848;49.798;10.228;2023-04-25T09:50:27;3.75;;;1.45;;
26756;SDS011;23848;49.798;10.228;2023-04-25T09:53:47;3.50;;;1.60;;
26756;SDS011;23848;49.798;10.228;2023-04-25T09:56:54;3.63;;;1.40;;
26756;SDS011;23848;49.798;10.228;2023-04-25T10:00:01;3.35;;;1.80;;
26756;SDS011;23848;49.798;10.228;2023-04-25T10:02:58;3.97;;;1.80;;
26756;SDS011;23848;49.798;10.228;2023-04-25T10:06:19;3.35;;;1.67;;
26756;SDS011;23848;49.798;10.228;2023-04-25T10:09:24;3.30;;;1.50;;
26756;SDS011;23848;49.798;10.228;2023-04-25T10:15:18;3.28;;;1.70;;
26756;SDS011;23848;49.798;10.228;2023-04-25T10:18:15;3.25;;;1.55;;
26756;SDS011;23848;49.798;10.228;2023-04-25T10:21:25;2.47;;;1.40;;
26756;SDS011;23848;49.798;10.228;2023-04-25T10:31:58;3.35;;;1.70;;
26756;SDS011;23848;49.798;10.228;2023-04-25T10:35:12;3.90;;;1.90;;
26756;SDS011;23848;49.798;10.228;2023-04-25T10:38:09;4.75;;;2.28;;
26756;SDS011;23848;49.798;10.228;2023-04-25T10:43:46;3.83;;;2.22;;
26756;SDS011;23848;49.798;10.228;2023-04-25T10:46:28;3.38;;;1.90;;
26756;SDS011;23848;49.798;10.228;2023-04-25T10:49:14;3.20;;;1.67;;
26756;SDS011;23848;49.798;10.228;2023-04-25T10:52:18;4.90;;;2.20;;
26756;SDS011;23848;49.798;10.228;2023-04-25T10:55:28;8.25;;;2.85;;
26756;SDS011;23848;49.798;10.228;2023-04-25T10:58:22;3.88;;;2.05;;
26756;SDS011;23848;49.798;10.228;2023-04-25T11:00:52;8.57;;;4.32;;
26756;SDS011;23848;49.798;10.228;2023-04-25T11:03:31;6.80;;;3.53;;
26756;SDS011;23848;49.798;10.228;2023-04-25T11:06:23;6.45;;;2.75;;
26756;SDS011;23848;49.798;10.228;2023-04-25T11:09:04;7.45;;;3.03;;
26756;SDS011;23848;49.798;10.228;2023-04-25T11:12:10;4.75;;;2.47;;
26756;SDS011;23848;49.798;10.228;2023-04-25T11:14:49;4.45;;;2.17;;
26756;SDS011;23848;49.798;10.228;2023-04-25T11:17:24;4.88;;;2.33;;
26756;SDS011;23848;49.798;10.228;2023-04-25T11:19:59;4.63;;;1.88;;
26756;SDS011;23848;49.798;10.228;2023-04-25T11:23:10;2.92;;;1.77;;
26756;SDS011;23848;49.798;10.228;2023-04-25T11:25:45;3.53;;;2.30;;
26756;SDS011;23848;49.798;10.228;2023-04-25T11:28:39;5.90;;;2.10;;
26756;SDS011;23848;49.798;10.228;2023-04-25T11:31:51;8.77;;;4.28;;
26756;SDS011;23848;49.798;10.228;2023-04-25T11:34:29;3.78;;;2.40;;
26756;SDS011;23848;49.798;10.228;2023-04-25T11:37:15;4.25;;;2.40;;
26756;SDS011;23848;49.798;10.228;2023-04-25T11:42:47;2.67;;;1.80;;
26756;SDS011;23848;49.798;10.228;2023-04-25T11:45:20;3.20;;;2.08;;
26756;SDS011;23848;49.798;10.228;2023-04-25T11:48:10;5.32;;;2.22;;
26756;SDS011;23848;49.798;10.228;2023-04-25T11:51:04;6.68;;;2.70;;
26756;SDS011;23848;49.798;10.228;2023-04-25T11:53:50;4.85;;;2.28;;
26756;SDS011;23848;49.798;10.228;2023-04-25T11:56:54;4.72;;;2.42;;
26756;SDS011;23848;49.798;10.228;2023-04-25T11:59:47;4.72;;;2.30;;
26756;SDS011;23848;49.798;10.228;2023-04-25T12:02:34;3.28;;;1.80;;
26756;SDS011;23848;49.798;10.228;2023-04-25T12:05:38;4.15;;;2.35;;
26756;SDS011;23848;49.798;10.228;2023-04-25T12:08:27;3.05;;;2.00;;
26756;SDS011;23848;49.798;10.228;2023-04-25T12:11:23;3.42;;;1.83;;
26756;SDS011;23848;49.798;10.228;2023-04-25T12:14:09;3.30;;;2.03;;
26756;SDS011;23848;49.798;10.228;2023-04-25T12:16:43;3.50;;;2.20;;
26756;SDS011;23848;49.798;10.228;2023-04-25T12:19:25;3.53;;;2.05;;
26756;SDS011;23848;49.798;10.228;2023-04-25T12:21:59;3.80;;;1.95;;
26756;SDS011;23848;49.798;10.228;2023-04-25T12:24:35;4.53;;;2.47;;
26756;SDS011;23848;49.798;10.228;2023-04-25T12:27:14;3.17;;;1.90;;
26756;SDS011;23848;49.798;10.228;2023-04-25T12:29:55;3.95;;;2.38;;
26756;SDS011;23848;49.798;10.228;2023-04-25T12:32:30;3.67;;;1.88;;
26756;SDS011;23848;49.798;10.228;2023-04-25T12:35:15;3.55;;;2.10;;
26756;SDS011;23848;49.798;10.228;2023-04-25T12:37:58;3.17;;;2.00;;
26756;SDS011;23848;49.798;10.228;2023-04-25T12:40:26;4.40;;;2.30;;
26756;SDS011;23848;49.798;10.228;2023-04-25T12:43:10;5.85;;;2.90;;
26756;SDS011;23848;49.798;10.228;2023-04-25T12:46:03;7.05;;;4.00;;
26756;SDS011;23848;49.798;10.228;2023-04-25T12:48:42;8.65;;;5.13;;
26756;SDS011;23848;49.798;10.228;2023-04-25T12:51:11;5.57;;;3.33;;
26756;SDS011;23848;49.798;10.228;2023-04-25T12:53:46;4.20;;;2.40;;
26756;SDS011;23848;49.798;10.228;2023-04-25T12:56:24;3.60;;;2.10;;
26756;SDS011;23848;49.798;10.228;2023-04-25T12:58:53;5.20;;;3.03;;
26756;SDS011;23848;49.798;10.228;2023-04-25T13:01:25;5.70;;;3.10;;
26756;SDS011;23848;49.798;10.228;2023-04-25T13:04:03;5.90;;;2.80;;
26756;SDS011;23848;49.798;10.228;2023-04-25T13:06:37;6.53;;;3.45;;
26756;SDS011;23848;49.798;10.228;2023-04-25T13:09:06;5.45;;;3.42;;
26756;SDS011;23848;49.798;10.228;2023-04-25T13:11:34;9.90;;;5.43;;
26756;SDS011;23848;49.798;10.228;2023-04-25T13:14:03;7.03;;;3.03;;
26756;SDS011;23848;49.798;10.228;2023-04-25T13:16:33;33.13;;;15.93;;
26756;SDS011;23848;49.798;10.228;2023-04-25T13:19:04;34.85;;;15.52;;
26756;SDS011;23848;49.798;10.228;2023-04-25T13:21:34;13.25;;;11.13;;
26756;SDS011;23848;49.798;10.228;2023-04-25T13:24:10;9.80;;;7.32;;
26756;SDS011;23848;49.798;10.228;2023-04-25T13:26:39;5.78;;;4.45;;
26756;SDS011;23848;49.798;10.228;2023-04-25T13:29:09;8.68;;;5.22;;
26756;SDS011;23848;49.798;10.228;2023-04-25T13:31:48;6.47;;;4.40;;
26756;SDS011;23848;49.798;10.228;2023-04-25T13:34:31;5.78;;;3.88;;
26756;SDS011;23848;49.798;10.228;2023-04-25T13:36:59;3.95;;;2.47;;
26756;SDS011;23848;49.798;10.228;2023-04-25T13:39:31;4.20;;;2.65;;
26756;SDS011;23848;49.798;10.228;2023-04-25T13:42:12;6.53;;;3.53;;
26756;SDS011;23848;49.798;10.228;2023-04-25T13:44:40;10.32;;;5.20;;
26756;SDS011;23848;49.798;10.228;2023-04-25T13:47:09;5.97;;;3.72;;
26756;SDS011;23848;49.798;10.228;2023-04-25T13:49:41;6.50;;;4.35;;
26756;SDS011;23848;49.798;10.228;2023-04-25T13:52:09;9.55;;;6.88;;
26756;SDS011;23848;49.798;10.228;2023-04-25T13:54:45;4.63;;;2.63;;
26756;SDS011;23848;49.798;10.228;2023-04-25T13:57:17;5.22;;;2.70;;
26756;SDS011;23848;49.798;10.228;2023-04-25T13:59:48;4.22;;;2.30;;
26756;SDS011;23848;49.798;10.228;2023-04-25T14:02:16;4.40;;;2.60;;
26756;SDS011;23848;49.798;10.228;2023-04-25T14:04:46;4.88;;;2.60;;
26756;SDS011;23848;49.798;10.228;2023-04-25T14:07:15;5.70;;;2.78;;
26756;SDS011;23848;49.798;10.228;2023-04-25T14:09:45;4.57;;;2.60;;
26756;SDS011;23848;49.798;10.228;2023-04-25T14:12:17;4.15;;;2.53;;
26756;SDS011;23848;49.798;10.228;2023-04-25T14:14:45;4.00;;;2.42;;
26756;SDS011;23848;49.798;10.228;2023-04-25T14:17:14;5.28;;;2.47;;
26756;SDS011;23848;49.798;10.228;2023-04-25T14:19:47;6.25;;;3.53;;
26756;SDS011;23848;49.798;10.228;2023-04-25T14:22:17;5.95;;;3.20;;
26756;SDS011;23848;49.798;10.228;2023-04-25T14:24:48;6.30;;;2.92;;
26756;SDS011;23848;49.798;10.228;2023-04-25T14:27:20;3.83;;;2.33;;
26756;SDS011;23848;49.798;10.228;2023-04-25T14:29:56;3.35;;;2.28;;
26756;SDS011;23848;49.798;10.228;2023-04-25T14:32:25;3.90;;;2.08;;
26756;SDS011;23848;49.798;10.228;2023-04-25T14:34:55;3.65;;;2.35;;
26756;SDS011;23848;49.798;10.228;2023-04-25T14:37:26;3.50;;;2.30;;
26756;SDS011;23848;49.798;10.228;2023-04-25T14:40:07;3.30;;;1.83;;
26756;SDS011;23848;49.798;10.228;2023-04-25T14:42:39;5.00;;;2.70;;
26756;SDS011;23848;49.798;10.228;2023-04-25T14:45:17;4.10;;;2.20;;
26756;SDS011;23848;49.798;10.228;2023-04-25T14:47:50;4.05;;;2.35;;
26756;SDS011;23848;49.798;10.228;2023-04-25T14:50:34;3.75;;;2.50;;
26756;SDS011;23848;49.798;10.228;2023-04-25T14:53:13;4.18;;;2.40;;
26756;SDS011;23848;49.798;10.228;2023-04-25T14:55:51;4.05;;;1.98;;
26756;SDS011;23848;49.798;10.228;2023-04-25T14:58:25;4.15;;;2.17;;
26756;SDS011;23848;49.798;10.228;2023-04-25T15:00:57;5.13;;;2.50;;
26756;SDS011;23848;49.798;10.228;2023-04-25T15:03:39;3.95;;;2.05;;
26756;SDS011;23848;49.798;10.228;2023-04-25T15:06:16;4.78;;;2.38;;
26756;SDS011;23848;49.798;10.228;2023-04-25T15:08:48;3.28;;;1.95;;
26756;SDS011;23848;49.798;10.228;2023-04-25T15:11:37;5.55;;;2.10;;
26756;SDS011;23848;49.798;10.228;2023-04-25T15:14:12;4.38;;;2.33;;
26756;SDS011;23848;49.798;10.228;2023-04-25T15:16:44;3.88;;;2.30;;
26756;SDS011;23848;49.798;10.228;2023-04-25T15:19:16;4.38;;;2.38;;
26756;SDS011;23848;49.798;10.228;2023-04-25T15:21:50;3.10;;;1.90;;
26756;SDS011;23848;49.798;10.228;2023-04-25T15:24:21;4.35;;;2.22;;
26756;SDS011;23848;49.798;10.228;2023-04-25T15:27:13;5.43;;;2.30;;
26756;SDS011;23848;49.798;10.228;2023-04-25T15:29:43;5.68;;;2.38;;
26756;SDS011;23848;49.798;10.228;2023-04-25T15:32:12;4.88;;;2.72;;
26756;SDS011;23848;49.798;10.228;2023-04-25T15:34:40;2.70;;;1.85;;
26756;SDS011;23848;49.798;10.228;2023-04-25T15:37:10;6.10;;;2.03;;
26756;SDS011;23848;49.798;10.228;2023-04-25T15:39:45;6.00;;;1.95;;
26756;SDS011;23848;49.798;10.228;2023-04-25T15:43:08;3.35;;;2.08;;
26756;SDS011;23848;49.798;10.228;2023-04-25T15:49:25;4.72;;;2.70;;
26756;SDS011;23848;49.798;10.228;2023-04-25T15:51:57;10.50;;;5.72;;
26756;SDS011;23848;49.798;10.228;2023-04-25T15:54:28;7.20;;;3.47;;
26756;SDS011;23848;49.798;10.228;2023-04-25T15:56:57;9.02;;;4.10;;
26756;SDS011;23848;49.798;10.228;2023-04-25T15:59:25;5.15;;;2.67;;
26756;SDS011;23848;49.798;10.228;2023-04-25T16:01:54;3.88;;;2.45;;
26756;SDS011;23848;49.798;10.228;2023-04-25T16:04:23;5.72;;;3.67;;
26756;SDS011;23848;49.798;10.228;2023-04-25T16:06:53;4.30;;;2.05;;
26756;SDS011;23848;49.798;10.228;2023-04-25T16:09:39;5.05;;;2.20;;
26756;SDS011;23848;49.798;10.228;2023-04-25T16:12:29;5.70;;;3.20;;
26756;SDS011;23848;49.798;10.228;2023-04-25T16:15:13;10.63;;;4.70;;
26756;SDS011;23848;49.798;10.228;2023-04-25T16:18:36;5.82;;;3.25;;
26756;SDS011;23848;49.798;10.228;2023-04-25T16:21:15;11.85;;;5.85;;
26756;SDS011;23848;49.798;10.228;2023-04-25T16:24:21;4.53;;;2.40;;
26756;SDS011;23848;49.798;10.228;2023-04-25T16:26:58;4.13;;;2.53;;
26756;SDS011;23848;49.798;10.228;2023-04-25T16:29:55;7.03;;;3.45;;
26756;SDS011;23848;49.798;10.228;2023-04-25T16:32:29;10.32;;;5.20;;
26756;SDS011;23848;49.798;10.228;2023-04-25T16:35:10;6.20;;;2.63;;
26756;SDS011;23848;49.798;10.228;2023-04-25T16:37:43;3.92;;;2.47;;
26756;SDS011;23848;49.798;10.228;2023-04-25T16:40:11;4.05;;;2.35;;
26756;SDS011;23848;49.798;10.228;2023-04-25T16:42:43;5.22;;;2.30;;
26756;SDS011;23848;49.798;10.228;2023-04-25T16:45:12;3.88;;;2.35;;
26756;SDS011;23848;49.798;10.228;2023-04-25T16:47:55;7.05;;;3.75;;
26756;SDS011;23848;49.798;10.228;2023-04-25T16:50:29;6.53;;;3.80;;
26756;SDS011;23848;49.798;10.228;2023-04-25T16:52:57;5.07;;;2.90;;
26756;SDS011;23848;49.798;10.228;2023-04-25T16:55:29;3.42;;;2.15;;
26756;SDS011;23848;49.798;10.228;2023-04-25T16:57:59;4.45;;;2.45;;
26756;SDS011;23848;49.798;10.228;2023-04-25T17:00:33;6.90;;;2.25;;
26756;SDS011;23848;49.798;10.228;2023-04-25T17:03:01;4.15;;;2.78;;
26756;SDS011;23848;49.798;10.228;2023-04-25T17:05:30;5.60;;;3.60;;
26756;SDS011;23848;49.798;10.228;2023-04-25T17:07:58;4.80;;;2.35;;
26756;SDS011;23848;49.798;10.228;2023-04-25T17:10:26;5.82;;;2.58;;
26756;SDS011;23848;49.798;10.228;2023-04-25T17:12:55;4.93;;;2.85;;
26756;SDS011;23848;49.798;10.228;2023-04-25T17:15:29;5.35;;;2.88;;
26756;SDS011;23848;49.798;10.228;2023-04-25T17:17:59;6.20;;;2.78;;
26756;SDS011;23848;49.798;10.228;2023-04-25T17:20:28;5.65;;;2.60;;
26756;SDS011;23848;49.798;10.228;2023-04-25T17:22:58;6.13;;;2.83;;
26756;SDS011;23848;49.798;10.228;2023-04-25T17:25:28;4.45;;;2.50;;
26756;SDS011;23848;49.798;10.228;2023-04-25T17:27:56;5.55;;;2.63;;
26756;SDS011;23848;49.798;10.228;2023-04-25T17:30:30;4.00;;;2.20;;
26756;SDS011;23848;49.798;10.228;2023-04-25T17:33:00;4.82;;;2.25;;
26756;SDS011;23848;49.798;10.228;2023-04-25T17:35:34;5.78;;;2.90;;
26756;SDS011;23848;49.798;10.228;2023-04-25T17:38:04;5.40;;;3.10;;
26756;SDS011;23848;49.798;10.228;2023-04-25T17:40:38;4.20;;;2.95;;
26756;SDS011;23848;49.798;10.228;2023-04-25T17:43:09;4.97;;;3.08;;
26756;SDS011;23848;49.798;10.228;2023-04-25T17:45:49;7.05;;;2.78;;
26756;SDS011;23848;49.798;10.228;2023-04-25T17:48:36;6.00;;;2.50;;
26756;SDS011;23848;49.798;10.228;2023-04-25T17:51:05;4.97;;;2.78;;
26756;SDS011;23848;49.798;10.228;2023-04-25T17:53:42;5.07;;;2.35;;
26756;SDS011;23848;49.798;10.228;2023-04-25T17:56:11;5.68;;;3.08;;
26756;SDS011;23848;49.798;10.228;2023-04-25T17:58:52;4.50;;;2.35;;
26756;SDS011;23848;49.798;10.228;2023-04-25T18:01:21;5.60;;;2.78;;
26756;SDS011;23848;49.798;10.228;2023-04-25T18:03:53;4.60;;;2.60;;
26756;SDS011;23848;49.798;10.228;2023-04-25T18:06:22;4.85;;;2.20;;
26756;SDS011;23848;49.798;10.228;2023-04-25T18:08:56;7.93;;;3.28;;
26756;SDS011;23848;49.798;10.228;2023-04-25T18:11:41;4.80;;;2.65;;
26756;SDS011;23848;49.798;10.228;2023-04-25T18:14:10;6.13;;;3.05;;
26756;SDS011;23848;49.798;10.228;2023-04-25T18:16:42;10.63;;;5.30;;
26756;SDS011;23848;49.798;10.228;2023-04-25T18:19:11;8.30;;;5.10;;
26756;SDS011;23848;49.798;10.228;2023-04-25T18:21:41;7.88;;;4.30;;
26756;SDS011;23848;49.798;10.228;2023-04-25T18:24:10;7.90;;;4.72;;
26756;SDS011;23848;49.798;10.228;2023-04-25T18:26:41;7.70;;;4.22;;
26756;SDS011;23848;49.798;10.228;2023-04-25T18:29:11;6.43;;;3.30;;